Potsdam, New York
Current Conditions -  °F | °C
As of 4:53 PM on Sunday 25 Jan 2015 (Local Time) from KMSS Reporting Station
Clear Clear  
Wind Chill: -5°   Ceiling: Unl
Heat Index:   Visibility: 10mi
Dew Point: -6°   Wind: 9mph
Humidity: 53%   Direction: 270°W
Pressure: 30.01"   Gusts: NA
Location:  44.67°N, 74.98°W
Report Text: KMSS 252153Z AUTO 27008KT 10SM CLR M13/M21 A3001 RMK AO2 SLP172 T11331211
Loading
Personal Weather Stations






























Interactive Weather Map New forecast layout! Learn more

10-Day Weather Forecast

Advertisements
Track Severe Weather on mobile